Portada
METAR-TAF:

METAR-TAF

Aeroports :

Aeroport Internacional Diori Hamani

Niamey, Níger

latitud: 13-29N, longitud: 002-10E, altitud: 223 m

Observació

L'informe es va fer fa 24 minuts, a les 07:00 UTC
Vent 4 kt del Nord
Temperatura 27°C
Humitat 42%
Pressió 1011 hPa
Visibilitat: 4200 m
Pols estès

METAR: DRRN 220700Z 36004KT 4200 DU NSC 27/13 Q1011 NOSIG

Hora: 08:24 (07:24 UTC)

Pronòstic

L'informe es va fer fa 2 hores i 24 minuts, a les 05:00 UTC
Pronòstic vàlid del 22 a les 06 UTC al 23 a les 12 UTC
Vent 10 kt del Sud/Sud-Est
Visibilitat: 8000 m
Temporalment
l' 22 a les 06 UTC al 22 a les 09 UTC
Visibilitat: 4000 m
Pols estès

TAF: DRRN 220500Z 2206/2312 16010KT 8000 NSC TEMPO 2206/2209 4000 DU

Observacions i pronòstics meteorològics de més de 4000 aeroports (METAR i TAF).

Les estacions disponibles són els punts grocs i vermells al mapa.

Posi el ratolí al punt desitjat per veure el nom de l'estació.

Feu clic per veure les observacions i els pronòstics meteorològics.

Per canviar el mapa: feu clic els botons verds amb una creu de color negre per apropar; al botó verd amb un guió per allunyar la imatge; o en les fletxes verdes per a mapes adjacents.


METAR-TAF: